Observations for ODIHAM RAF, United Kingdom (EGVO)

EGVO 191950Z AUTO 22005KT 9999 NCD 08/06 Q1004  
EGVO 191850Z AUTO 22005KT 9999 NCD 09/07 Q1003  
EGVO 191750Z 21005KT CAVOK 09/07 Q1003 RMK BLU  
EGVO 191650Z AUTO 22006KT 9999 NCD 11/07 Q1002  
EGVO 191550Z 23008KT 9999 FEW030 13/07 Q1002 RMK BLU
EGVO 191450Z 23011KT 9999 FEW030 14/07 Q1001 RMK BLU
EGVO 191350Z 24013KT 9999 FEW030 SCT060 14/07 Q1001 RMK BLU 
EGVO 191250Z 22012KT 9999 VCSH FEW029 SCT050 13/07 Q1000 RMK BLU
EGVO 191150Z 23012KT 9999 FEW024 SCT040 13/07 Q1000 RMK BLU 
EGVO 191050Z 23014KT 9999 FEW022 13/08 Q1000 RMK BLU
EGVO 190950Z 23011KT 9999 FEW014 12/09 Q1000 RMK BLU
EGVO 190850Z 23010KT 9999 FEW008 10/08 Q0999 RMK BLU
EGVO 190750Z 23007KT 9999 FEW020 09/08 Q0999 RMK BLU
EGVO 190650Z 21006KT 9999 FEW020 08/07 Q0999 RMK BLU
EGVO 190550Z AUTO 20009KT 9999 NCD 09/08 Q0998  
EGVO 190450Z AUTO 21007KT 9999 NCD 09/08 Q0998  
EGVO 190350Z AUTO 20009KT 9999 NCD 10/08 Q0998  
EGVO 190250Z AUTO 19009KT 9999 FEW190/// 10/09 Q0998
EGVO 190150Z AUTO 20009KT 9999 FEW060/// 10/09 Q0998
EGVO 190050Z AUTO 19009KT 9999 FEW220/// 10/08 Q0998
EGVO 182350Z AUTO 19009KT 9999 SCT022/// SCT130/// 10/09 Q0998  
EGVO 182250Z AUTO 20010KT 9999 FEW050/// 11/09 Q0999 RERA   
EGVO 182150Z AUTO 20013KT 9999 FEW090/// 11/09 Q0999 RERA   
EGVO 182050Z AUTO 20009KT 9999 -RA FEW023/// 11/09 Q0999
EGVO 181950Z AUTO 20013KT 9999 RA SCT050/// BKN100/// 12/09 Q0999